O'Brien, Texas
Current Conditions -  °F | °C
As of 12:58 PM on Friday 31 Oct 2014 (Local Time) from KDYS Reporting Station
Clear Clear  
Wind Chill: 65°   Ceiling: Unl
Heat Index: 65°   Visibility: 10mi
Dew Point: 35°   Wind: 10mph
Humidity: 33%   Direction: 30°NNE
Pressure: 30.39"   Gusts: 18mph
Location:  33.38°N, 99.84°W
Report Text: KDYS 311758Z AUTO 03009G16KT 10SM CLR 18/02 A3039 RMK AO2 SLP268 T01820016 10182 20078 58001 $
Loading
Personal Weather Stations






























Interactive Weather Map
Tropical Storm Tracking
New forecast layout! Learn more

10-Day Weather Forecast

Advertisements
Track Severe Weather on mobile